sensor_id;sensor_type;location;lat;lon;timestamp;pressure;altitude;pressure_sealevel;temperature;humidity
69060;BME280;56135;37.534;-122.308;2023-04-26T00:01:01;101091.81;;;23.61;50.68
69060;BME280;56135;37.534;-122.308;2023-04-26T00:03:28;101086.63;;;23.58;50.70
69060;BME280;56135;37.534;-122.308;2023-04-26T00:05:55;101092.88;;;23.59;49.32
69060;BME280;56135;37.534;-122.308;2023-04-26T00:08:20;101093.19;;;23.54;48.76
69060;BME280;56135;37.534;-122.308;2023-04-26T00:10:47;101093.44;;;23.49;49.06
69060;BME280;56135;37.534;-122.308;2023-04-26T00:13:13;101100.19;;;23.42;48.12
69060;BME280;56135;37.534;-122.308;2023-04-26T00:15:39;101099.03;;;23.46;46.20
69060;BME280;56135;37.534;-122.308;2023-04-26T00:18:05;101104.31;;;23.34;45.54
69060;BME280;56135;37.534;-122.308;2023-04-26T00:20:31;101094.88;;;23.26;46.09
69060;BME280;56135;37.534;-122.308;2023-04-26T00:22:57;101103.53;;;23.17;45.61
69060;BME280;56135;37.534;-122.308;2023-04-26T00:25:23;101091.09;;;23.14;45.77
69060;BME280;56135;37.534;-122.308;2023-04-26T00:27:51;101097.84;;;23.06;46.84
69060;BME280;56135;37.534;-122.308;2023-04-26T00:30:17;101103.53;;;23.01;46.21
69060;BME280;56135;37.534;-122.308;2023-04-26T00:32:43;101101.09;;;22.96;46.13
69060;BME280;56135;37.534;-122.308;2023-04-26T00:35:09;101098.94;;;22.87;45.13
69060;BME280;56135;37.534;-122.308;2023-04-26T00:37:36;101108.91;;;22.71;44.05
69060;BME280;56135;37.534;-122.308;2023-04-26T00:40:04;101110.19;;;22.63;44.85
69060;BME280;56135;37.534;-122.308;2023-04-26T00:42:33;101108.44;;;22.62;45.60
69060;BME280;56135;37.534;-122.308;2023-04-26T00:44:59;101110.22;;;22.47;44.88
69060;BME280;56135;37.534;-122.308;2023-04-26T00:47:26;101116.38;;;22.33;44.76
69060;BME280;56135;37.534;-122.308;2023-04-26T00:49:54;101117.66;;;22.26;46.36
69060;BME280;56135;37.534;-122.308;2023-04-26T00:52:21;101110.44;;;22.11;46.19
69060;BME280;56135;37.534;-122.308;2023-04-26T00:54:48;101115.03;;;22.09;47.14
69060;BME280;56135;37.534;-122.308;2023-04-26T00:57:16;101115.09;;;21.91;46.38
69060;BME280;56135;37.534;-122.308;2023-04-26T00:59:41;101120.72;;;21.87;46.75
69060;BME280;56135;37.534;-122.308;2023-04-26T01:02:08;101118.44;;;21.79;47.18
69060;BME280;56135;37.534;-122.308;2023-04-26T01:04:34;101124.25;;;21.71;48.00
69060;BME280;56135;37.534;-122.308;2023-04-26T01:07:02;101130.56;;;21.53;47.48
69060;BME280;56135;37.534;-122.308;2023-04-26T01:09:31;101127.47;;;21.43;48.03
69060;BME280;56135;37.534;-122.308;2023-04-26T01:11:58;101133.50;;;21.30;46.96
69060;BME280;56135;37.534;-122.308;2023-04-26T01:14:26;101128.44;;;21.24;48.62
69060;BME280;56135;37.534;-122.308;2023-04-26T01:16:53;101128.59;;;21.21;47.92
69060;BME280;56135;37.534;-122.308;2023-04-26T01:19:20;101131.44;;;21.00;48.92
69060;BME280;56135;37.534;-122.308;2023-04-26T01:21:46;101131.75;;;20.94;48.14
69060;BME280;56135;37.534;-122.308;2023-04-26T01:24:13;101140.09;;;20.88;47.87
69060;BME280;56135;37.534;-122.308;2023-04-26T01:26:39;101128.16;;;20.76;48.10
69060;BME280;56135;37.534;-122.308;2023-04-26T01:29:19;101135.84;;;20.65;47.88
69060;BME280;56135;37.534;-122.308;2023-04-26T01:31:47;101141.03;;;20.50;49.01
69060;BME280;56135;37.534;-122.308;2023-04-26T01:34:14;101141.22;;;20.46;49.05
69060;BME280;56135;37.534;-122.308;2023-04-26T01:36:40;101147.97;;;20.36;49.21
69060;BME280;56135;37.534;-122.308;2023-04-26T01:39:07;101138.56;;;20.27;49.37
69060;BME280;56135;37.534;-122.308;2023-04-26T01:41:36;101140.78;;;20.17;48.82
69060;BME280;56135;37.534;-122.308;2023-04-26T01:44:02;101144.91;;;20.05;49.52
69060;BME280;56135;37.534;-122.308;2023-04-26T01:46:28;101149.50;;;20.03;49.71
69060;BME280;56135;37.534;-122.308;2023-04-26T01:48:54;101148.69;;;19.80;50.12
69060;BME280;56135;37.534;-122.308;2023-04-26T01:51:22;101148.66;;;19.82;50.29
69060;BME280;56135;37.534;-122.308;2023-04-26T01:53:47;101148.53;;;19.64;50.66
69060;BME280;56135;37.534;-122.308;2023-04-26T01:56:14;101155.38;;;19.51;51.90
69060;BME280;56135;37.534;-122.308;2023-04-26T01:58:40;101154.28;;;19.34;51.21
69060;BME280;56135;37.534;-122.308;2023-04-26T02:01:08;101154.59;;;19.27;52.28
69060;BME280;56135;37.534;-122.308;2023-04-26T02:03:35;101154.72;;;19.24;51.71
69060;BME280;56135;37.534;-122.308;2023-04-26T02:06:01;101160.69;;;19.10;53.08
69060;BME280;56135;37.534;-122.308;2023-04-26T02:08:28;101155.97;;;18.94;52.44
69060;BME280;56135;37.534;-122.308;2023-04-26T02:10:54;101161.97;;;18.77;53.60
69060;BME280;56135;37.534;-122.308;2023-04-26T02:13:21;101168.88;;;18.61;54.01
69060;BME280;56135;37.534;-122.308;2023-04-26T02:15:48;101163.84;;;18.53;53.79
69060;BME280;56135;37.534;-122.308;2023-04-26T02:18:15;101172.28;;;18.42;53.68
69060;BME280;56135;37.534;-122.308;2023-04-26T02:20:43;101166.22;;;18.37;54.10
69060;BME280;56135;37.534;-122.308;2023-04-26T02:23:10;101174.03;;;18.20;55.44
69060;BME280;56135;37.534;-122.308;2023-04-26T02:25:37;101171.81;;;18.07;56.21
69060;BME280;56135;37.534;-122.308;2023-04-26T02:28:05;101175.66;;;18.00;56.38
69060;BME280;56135;37.534;-122.308;2023-04-26T02:30:34;101182.91;;;17.96;56.68
69060;BME280;56135;37.534;-122.308;2023-04-26T02:33:06;101190.50;;;17.82;57.95
69060;BME280;56135;37.534;-122.308;2023-04-26T02:35:36;101191.50;;;17.79;58.38
69060;BME280;56135;37.534;-122.308;2023-04-26T02:38:11;101191.28;;;17.60;59.36
69060;BME280;56135;37.534;-122.308;2023-04-26T02:40:38;101177.53;;;17.46;60.93
69060;BME280;56135;37.534;-122.308;2023-04-26T02:43:04;101182.47;;;17.31;62.34
69060;BME280;56135;37.534;-122.308;2023-04-26T02:45:30;101188.38;;;17.14;63.27
69060;BME280;56135;37.534;-122.308;2023-04-26T02:47:56;101188.59;;;17.08;63.84
69060;BME280;56135;37.534;-122.308;2023-04-26T02:50:25;101194.53;;;16.88;65.94
69060;BME280;56135;37.534;-122.308;2023-04-26T02:52:52;101215.06;;;16.86;66.45
69060;BME280;56135;37.534;-122.308;2023-04-26T02:55:18;101216.16;;;16.79;70.87
69060;BME280;56135;37.534;-122.308;2023-04-26T02:57:46;101211.50;;;16.57;73.39
69060;BME280;56135;37.534;-122.308;2023-04-26T03:00:13;101219.25;;;16.37;75.86
69060;BME280;56135;37.534;-122.308;2023-04-26T03:02:39;101215.03;;;16.28;77.39
69060;BME280;56135;37.534;-122.308;2023-04-26T03:05:05;101216.09;;;16.22;77.40
69060;BME280;56135;37.534;-122.308;2023-04-26T03:07:34;101215.56;;;16.09;79.74
69060;BME280;56135;37.534;-122.308;2023-04-26T03:10:00;101226.22;;;16.09;79.49
69060;BME280;56135;37.534;-122.308;2023-04-26T03:12:27;101229.31;;;15.94;81.44
69060;BME280;56135;37.534;-122.308;2023-04-26T03:14:53;101239.31;;;15.86;83.92
69060;BME280;56135;37.534;-122.308;2023-04-26T03:17:20;101237.66;;;15.81;83.84
69060;BME280;56135;37.534;-122.308;2023-04-26T03:19:50;101248.69;;;15.64;86.19
69060;BME280;56135;37.534;-122.308;2023-04-26T03:22:17;101245.22;;;15.61;87.96
69060;BME280;56135;37.534;-122.308;2023-04-26T03:24:43;101234.88;;;15.50;89.75
69060;BME280;56135;37.534;-122.308;2023-04-26T03:27:12;101234.19;;;15.42;92.33
69060;BME280;56135;37.534;-122.308;2023-04-26T03:29:42;101244.16;;;15.33;91.62
69060;BME280;56135;37.534;-122.308;2023-04-26T03:32:11;101230.13;;;15.27;92.59
69060;BME280;56135;37.534;-122.308;2023-04-26T03:34:38;101241.13;;;15.11;93.52
69060;BME280;56135;37.534;-122.308;2023-04-26T03:37:04;101236.75;;;15.09;92.66
69060;BME280;56135;37.534;-122.308;2023-04-26T03:39:41;101239.56;;;15.02;93.57
69060;BME280;56135;37.534;-122.308;2023-04-26T03:42:07;101242.44;;;14.93;95.49
69060;BME280;56135;37.534;-122.308;2023-04-26T03:44:36;101244.34;;;14.88;95.81
69060;BME280;56135;37.534;-122.308;2023-04-26T03:47:04;101251.72;;;14.75;98.09
69060;BME280;56135;37.534;-122.308;2023-04-26T03:49:31;101253.72;;;14.64;99.23
69060;BME280;56135;37.534;-122.308;2023-04-26T03:51:57;101251.19;;;14.58;98.97
69060;BME280;56135;37.534;-122.308;2023-04-26T03:54:23;101255.69;;;14.54;97.10
69060;BME280;56135;37.534;-122.308;2023-04-26T03:56:50;101262.84;;;14.50;96.88
69060;BME280;56135;37.534;-122.308;2023-04-26T03:59:16;101268.31;;;14.44;98.18
69060;BME280;56135;37.534;-122.308;2023-04-26T04:01:42;101270.22;;;14.36;98.06
69060;BME280;56135;37.534;-122.308;2023-04-26T04:04:11;101270.78;;;14.07;100.00
69060;BME280;56135;37.534;-122.308;2023-04-26T04:06:37;101276.88;;;14.13;99.61
69060;BME280;56135;37.534;-122.308;2023-04-26T04:09:04;101279.78;;;13.99;100.00
69060;BME280;56135;37.534;-122.308;2023-04-26T04:11:33;101275.41;;;13.97;100.00
69060;BME280;56135;37.534;-122.308;2023-04-26T04:14:02;101274.59;;;13.93;100.00
69060;BME280;56135;37.534;-122.308;2023-04-26T04:16:28;101276.44;;;13.88;100.00
69060;BME280;56135;37.534;-122.308;2023-04-26T04:18:55;101280.94;;;13.84;100.00
69060;BME280;56135;37.534;-122.308;2023-04-26T04:21:21;101285.31;;;13.87;100.00
69060;BME280;56135;37.534;-122.308;2023-04-26T04:23:47;101287.25;;;13.77;100.00
69060;BME280;56135;37.534;-122.308;2023-04-26T04:26:13;101282.97;;;13.70;100.00
69060;BME280;56135;37.534;-122.308;2023-04-26T04:28:40;101293.59;;;13.70;100.00
69060;BME280;56135;37.534;-122.308;2023-04-26T04:31:06;101290.09;;;13.66;100.00
69060;BME280;56135;37.534;-122.308;2023-04-26T04:33:36;101300.97;;;13.51;100.00
69060;BME280;56135;37.534;-122.308;2023-04-26T04:36:02;101296.59;;;13.48;100.00
69060;BME280;56135;37.534;-122.308;2023-04-26T04:38:28;101306.41;;;13.45;100.00
69060;BME280;56135;37.534;-122.308;2023-04-26T04:40:55;101305.97;;;13.12;100.00
69060;BME280;56135;37.534;-122.308;2023-04-26T04:43:23;101300.59;;;13.15;100.00
69060;BME280;56135;37.534;-122.308;2023-04-26T04:45:49;101309.38;;;13.20;100.00
69060;BME280;56135;37.534;-122.308;2023-04-26T04:48:15;101313.91;;;13.13;100.00
69060;BME280;56135;37.534;-122.308;2023-04-26T04:50:43;101312.22;;;13.06;100.00
69060;BME280;56135;37.534;-122.308;2023-04-26T04:53:09;101322.06;;;12.98;100.00
69060;BME280;56135;37.534;-122.308;2023-04-26T04:55:37;101322.22;;;12.87;100.00
69060;BME280;56135;37.534;-122.308;2023-04-26T04:58:03;101327.59;;;12.79;100.00
69060;BME280;56135;37.534;-122.308;2023-04-26T05:00:29;101333.09;;;12.65;100.00
69060;BME280;56135;37.534;-122.308;2023-04-26T05:02:56;101336.69;;;12.58;100.00
69060;BME280;56135;37.534;-122.308;2023-04-26T05:05:22;101328.84;;;12.52;100.00
69060;BME280;56135;37.534;-122.308;2023-04-26T05:07:48;101333.31;;;12.44;100.00
69060;BME280;56135;37.534;-122.308;2023-04-26T05:10:15;101336.94;;;12.37;100.00
69060;BME280;56135;37.534;-122.308;2023-04-26T05:12:41;101336.16;;;12.28;100.00
69060;BME280;56135;37.534;-122.308;2023-04-26T05:15:07;101333.59;;;12.21;100.00
69060;BME280;56135;37.534;-122.308;2023-04-26T05:17:34;101336.31;;;12.11;100.00
69060;BME280;56135;37.534;-122.308;2023-04-26T05:20:00;101343.44;;;12.01;100.00
69060;BME280;56135;37.534;-122.308;2023-04-26T05:22:31;101338.22;;;11.94;100.00
69060;BME280;56135;37.534;-122.308;2023-04-26T05:24:57;101336.50;;;11.87;100.00
69060;BME280;56135;37.534;-122.308;2023-04-26T05:27:23;101324.22;;;11.76;100.00
69060;BME280;56135;37.534;-122.308;2023-04-26T05:29:49;101332.25;;;11.70;100.00
69060;BME280;56135;37.534;-122.308;2023-04-26T05:32:16;101329.66;;;11.61;100.00
69060;BME280;56135;37.534;-122.308;2023-04-26T05:34:42;101328.84;;;11.52;100.00
69060;BME280;56135;37.534;-122.308;2023-04-26T05:37:08;101342.13;;;11.45;100.00
69060;BME280;56135;37.534;-122.308;2023-04-26T05:39:34;101342.16;;;11.39;100.00
69060;BME280;56135;37.534;-122.308;2023-04-26T05:42:00;101350.16;;;11.29;100.00
69060;BME280;56135;37.534;-122.308;2023-04-26T05:44:28;101337.00;;;11.20;100.00
69060;BME280;56135;37.534;-122.308;2023-04-26T05:46:54;101349.34;;;11.15;100.00
69060;BME280;56135;37.534;-122.308;2023-04-26T05:49:21;101346.78;;;11.09;100.00
69060;BME280;56135;37.534;-122.308;2023-04-26T05:51:47;101350.28;;;11.05;100.00
69060;BME280;56135;37.534;-122.308;2023-04-26T05:54:13;101354.72;;;11.01;100.00
69060;BME280;56135;37.534;-122.308;2023-04-26T05:56:40;101352.97;;;10.95;100.00
69060;BME280;56135;37.534;-122.308;2023-04-26T05:59:07;101348.63;;;10.87;100.00
69060;BME280;56135;37.534;-122.308;2023-04-26T06:01:34;101352.19;;;10.81;100.00
69060;BME280;56135;37.534;-122.308;2023-04-26T06:04:00;101353.97;;;10.76;100.00
69060;BME280;56135;37.534;-122.308;2023-04-26T06:06:26;101350.44;;;10.71;100.00
69060;BME280;56135;37.534;-122.308;2023-04-26T06:08:53;101346.06;;;10.68;100.00
69060;BME280;56135;37.534;-122.308;2023-04-26T06:11:19;101355.75;;;10.64;100.00
69060;BME280;56135;37.534;-122.308;2023-04-26T06:13:45;101351.34;;;10.60;100.00
69060;BME280;56135;37.534;-122.308;2023-04-26T06:16:12;101343.44;;;10.54;100.00
69060;BME280;56135;37.534;-122.308;2023-04-26T06:18:38;101347.00;;;10.48;100.00
69060;BME280;56135;37.534;-122.308;2023-04-26T06:21:05;101347.91;;;10.43;100.00
69060;BME280;56135;37.534;-122.308;2023-04-26T06:23:31;101346.16;;;10.37;100.00
69060;BME280;56135;37.534;-122.308;2023-04-26T06:25:57;101343.50;;;10.35;100.00
69060;BME280;56135;37.534;-122.308;2023-04-26T06:28:24;101340.88;;;10.28;100.00
69060;BME280;56135;37.534;-122.308;2023-04-26T06:30:51;101355.81;;;10.27;100.00
69060;BME280;56135;37.534;-122.308;2023-04-26T06:33:17;101348.78;;;10.23;100.00
69060;BME280;56135;37.534;-122.308;2023-04-26T06:35:43;101343.53;;;10.12;100.00
69060;BME280;56135;37.534;-122.308;2023-04-26T06:38:09;101354.06;;;10.12;100.00
69060;BME280;56135;37.534;-122.308;2023-04-26T06:40:37;101351.44;;;10.09;100.00
69060;BME280;56135;37.534;-122.308;2023-04-26T06:43:03;101349.66;;;10.05;100.00
69060;BME280;56135;37.534;-122.308;2023-04-26T06:45:30;101347.91;;;10.01;100.00
69060;BME280;56135;37.534;-122.308;2023-04-26T06:47:56;101358.50;;;9.96;100.00
69060;BME280;56135;37.534;-122.308;2023-04-26T06:50:25;101347.06;;;9.88;100.00
69060;BME280;56135;37.534;-122.308;2023-04-26T06:52:51;101347.91;;;9.84;100.00
69060;BME280;56135;37.534;-122.308;2023-04-26T06:55:18;101347.94;;;9.76;100.00
69060;BME280;56135;37.534;-122.308;2023-04-26T06:57:44;101348.81;;;9.74;100.00
69060;BME280;56135;37.534;-122.308;2023-04-26T07:00:11;101353.22;;;9.68;100.00
69060;BME280;56135;37.534;-122.308;2023-04-26T07:02:37;101353.22;;;9.68;100.00
69060;BME280;56135;37.534;-122.308;2023-04-26T07:05:03;101351.47;;;9.63;100.00
69060;BME280;56135;37.534;-122.308;2023-04-26T07:07:30;101352.31;;;9.56;100.00
69060;BME280;56135;37.534;-122.308;2023-04-26T07:09:56;101356.72;;;9.54;100.00
69060;BME280;56135;37.534;-122.308;2023-04-26T07:12:23;101356.69;;;9.49;100.00
69060;BME280;56135;37.534;-122.308;2023-04-26T07:14:49;101362.00;;;9.44;100.00
69060;BME280;56135;37.534;-122.308;2023-04-26T07:17:15;101355.81;;;9.41;100.00
69060;BME280;56135;37.534;-122.308;2023-04-26T07:19:41;101347.00;;;9.35;100.00
69060;BME280;56135;37.534;-122.308;2023-04-26T07:22:07;101348.75;;;9.33;100.00
69060;BME280;56135;37.534;-122.308;2023-04-26T07:24:35;101353.16;;;9.33;100.00
69060;BME280;56135;37.534;-122.308;2023-04-26T07:27:01;101366.34;;;9.30;100.00
69060;BME280;56135;37.534;-122.308;2023-04-26T07:29:27;101366.31;;;9.27;100.00
69060;BME280;56135;37.534;-122.308;2023-04-26T07:31:54;101364.56;;;9.21;100.00
69060;BME280;56135;37.534;-122.308;2023-04-26T07:34:21;101362.78;;;9.14;100.00
69060;BME280;56135;37.534;-122.308;2023-04-26T07:36:47;101361.03;;;9.13;100.00
69060;BME280;56135;37.534;-122.308;2023-04-26T07:39:14;101360.13;;;9.11;100.00
69060;BME280;56135;37.534;-122.308;2023-04-26T07:41:40;101358.34;;;9.08;100.00
69060;BME280;56135;37.534;-122.308;2023-04-26T07:44:06;101361.00;;;9.05;100.00
69060;BME280;56135;37.534;-122.308;2023-04-26T07:46:33;101364.50;;;9.04;100.00
69060;BME280;56135;37.534;-122.308;2023-04-26T07:48:59;101352.19;;;9.01;100.00
69060;BME280;56135;37.534;-122.308;2023-04-26T07:51:26;101359.19;;;8.96;100.00
69060;BME280;56135;37.534;-122.308;2023-04-26T07:53:52;101352.19;;;8.95;100.00
69060;BME280;56135;37.534;-122.308;2023-04-26T07:56:20;101354.78;;;8.89;100.00
69060;BME280;56135;37.534;-122.308;2023-04-26T07:58:48;101353.88;;;8.87;100.00
69060;BME280;56135;37.534;-122.308;2023-04-26T08:01:15;101360.91;;;8.82;100.00
69060;BME280;56135;37.534;-122.308;2023-04-26T08:03:41;101357.38;;;8.80;100.00
69060;BME280;56135;37.534;-122.308;2023-04-26T08:06:07;101362.66;;;8.77;100.00
69060;BME280;56135;37.534;-122.308;2023-04-26T08:08:34;101362.63;;;8.72;100.00
69060;BME280;56135;37.534;-122.308;2023-04-26T08:11:07;101370.50;;;8.67;100.00
69060;BME280;56135;37.534;-122.308;2023-04-26T08:13:34;101355.56;;;8.63;100.00
69060;BME280;56135;37.534;-122.308;2023-04-26T08:16:01;101371.34;;;8.60;100.00
69060;BME280;56135;37.534;-122.308;2023-04-26T08:18:27;101359.94;;;8.58;100.00
69060;BME280;56135;37.534;-122.308;2023-04-26T08:20:53;101362.53;;;8.54;100.00
69060;BME280;56135;37.534;-122.308;2023-04-26T08:23:21;101361.66;;;8.53;100.00
69060;BME280;56135;37.534;-122.308;2023-04-26T08:25:47;101363.38;;;8.49;100.00
69060;BME280;56135;37.534;-122.308;2023-04-26T08:28:15;101356.38;;;8.51;100.00
69060;BME280;56135;37.534;-122.308;2023-04-26T08:30:41;101361.63;;;8.50;100.00
69060;BME280;56135;37.534;-122.308;2023-04-26T08:33:08;101367.78;;;8.49;100.00
69060;BME280;56135;37.534;-122.308;2023-04-26T08:35:34;101358.06;;;8.45;100.00
69060;BME280;56135;37.534;-122.308;2023-04-26T08:38:00;101359.78;;;8.43;100.00
69060;BME280;56135;37.534;-122.308;2023-04-26T08:40:26;101364.16;;;8.41;100.00
69060;BME280;56135;37.534;-122.308;2023-04-26T08:42:53;101360.66;;;8.35;100.00
69060;BME280;56135;37.534;-122.308;2023-04-26T08:45:20;101362.38;;;8.33;100.00
69060;BME280;56135;37.534;-122.308;2023-04-26T08:48:09;101353.59;;;8.33;100.00
69060;BME280;56135;37.534;-122.308;2023-04-26T08:50:40;101357.97;;;8.29;100.00
69060;BME280;56135;37.534;-122.308;2023-04-26T08:53:08;101358.81;;;8.28;100.00
69060;BME280;56135;37.534;-122.308;2023-04-26T08:55:36;101353.56;;;8.28;100.00
69060;BME280;56135;37.534;-122.308;2023-04-26T08:58:04;101350.91;;;8.25;100.00
69060;BME280;56135;37.534;-122.308;2023-04-26T09:00:31;101335.13;;;8.24;100.00
69060;BME280;56135;37.534;-122.308;2023-04-26T09:02:58;101347.38;;;8.22;100.00
69060;BME280;56135;37.534;-122.308;2023-04-26T09:05:24;101345.59;;;8.17;100.00
69060;BME280;56135;37.534;-122.308;2023-04-26T09:08:01;101336.81;;;8.15;100.00
69060;BME280;56135;37.534;-122.308;2023-04-26T09:10:30;101341.19;;;8.12;100.00
69060;BME280;56135;37.534;-122.308;2023-04-26T09:12:57;101334.13;;;8.08;100.00
69060;BME280;56135;37.534;-122.308;2023-04-26T09:15:24;101337.59;;;8.04;100.00
69060;BME280;56135;37.534;-122.308;2023-04-26T09:17:52;101335.84;;;8.02;100.00
69060;BME280;56135;37.534;-122.308;2023-04-26T09:20:26;101334.94;;;7.99;100.00
69060;BME280;56135;37.534;-122.308;2023-04-26T09:23:12;101338.44;;;7.95;100.00
69060;BME280;56135;37.534;-122.308;2023-04-26T09:25:41;101335.78;;;7.93;100.00
69060;BME280;56135;37.534;-122.308;2023-04-26T09:28:26;101334.88;;;7.90;100.00
69060;BME280;56135;37.534;-122.308;2023-04-26T09:30:52;101336.59;;;7.86;100.00
69060;BME280;56135;37.534;-122.308;2023-04-26T09:33:18;101335.72;;;7.85;100.00
69060;BME280;56135;37.534;-122.308;2023-04-26T09:35:44;101333.09;;;7.82;100.00
69060;BME280;56135;37.534;-122.308;2023-04-26T09:38:15;101333.88;;;7.77;100.00
69060;BME280;56135;37.534;-122.308;2023-04-26T09:40:43;101344.41;;;7.75;100.00
69060;BME280;56135;37.534;-122.308;2023-04-26T09:43:13;101342.63;;;7.73;100.00
69060;BME280;56135;37.534;-122.308;2023-04-26T09:45:57;101349.59;;;7.69;100.00
69060;BME280;56135;37.534;-122.308;2023-04-26T09:48:28;101349.56;;;7.64;100.00
69060;BME280;56135;37.534;-122.308;2023-04-26T09:50:57;101350.44;;;7.65;100.00
69060;BME280;56135;37.534;-122.308;2023-04-26T09:56:11;101346.88;;;7.58;100.00
69060;BME280;56135;37.534;-122.308;2023-04-26T09:58:53;101347.75;;;7.57;100.00
69060;BME280;56135;37.534;-122.308;2023-04-26T10:01:24;101338.97;;;7.55;100.00
69060;BME280;56135;37.534;-122.308;2023-04-26T10:03:51;101342.44;;;7.51;100.00
69060;BME280;56135;37.534;-122.308;2023-04-26T10:06:17;101338.03;;;7.48;100.00
69060;BME280;56135;37.534;-122.308;2023-04-26T10:08:44;101349.41;;;7.49;100.00
69060;BME280;56135;37.534;-122.308;2023-04-26T10:11:10;101341.50;;;7.46;100.00
69060;BME280;56135;37.534;-122.308;2023-04-26T10:13:37;101339.75;;;7.45;100.00
69060;BME280;56135;37.534;-122.308;2023-04-26T10:16:03;101348.50;;;7.44;100.00
69060;BME280;56135;37.534;-122.308;2023-04-26T10:18:31;101338.81;;;7.41;100.00
69060;BME280;56135;37.534;-122.308;2023-04-26T10:21:11;101341.50;;;7.43;100.00
69060;BME280;56135;37.534;-122.308;2023-04-26T10:23:39;101334.47;;;7.42;100.00
69060;BME280;56135;37.534;-122.308;2023-04-26T10:26:06;101335.31;;;7.38;100.00
69060;BME280;56135;37.534;-122.308;2023-04-26T10:31:05;101339.66;;;7.34;100.00
69060;BME280;56135;37.534;-122.308;2023-04-26T10:33:32;101338.72;;;7.29;100.00
69060;BME280;56135;37.534;-122.308;2023-04-26T10:36:01;101336.94;;;7.26;100.00
69060;BME280;56135;37.534;-122.308;2023-04-26T10:38:27;101334.28;;;7.25;100.00
69060;BME280;56135;37.534;-122.308;2023-04-26T10:40:54;101334.28;;;7.25;100.00
69060;BME280;56135;37.534;-122.308;2023-04-26T10:43:27;101346.53;;;7.23;100.00
69060;BME280;56135;37.534;-122.308;2023-04-26T10:45:54;101343.00;;;7.19;100.00
69060;BME280;56135;37.534;-122.308;2023-04-26T10:48:30;101354.38;;;7.18;100.00
69060;BME280;56135;37.534;-122.308;2023-04-26T10:53:30;101350.81;;;7.13;100.00
69060;BME280;56135;37.534;-122.308;2023-04-26T10:55:57;101342.94;;;7.14;100.00
69060;BME280;56135;37.534;-122.308;2023-04-26T10:58:27;101355.22;;;7.14;100.00
69060;BME280;56135;37.534;-122.308;2023-04-26T11:01:15;101352.56;;;7.12;100.00
69060;BME280;56135;37.534;-122.308;2023-04-26T11:03:43;101348.16;;;7.10;100.00
69060;BME280;56135;37.534;-122.308;2023-04-26T11:06:10;101350.72;;;7.07;100.00
69060;BME280;56135;37.534;-122.308;2023-04-26T11:08:40;101354.19;;;7.03;100.00
69060;BME280;56135;37.534;-122.308;2023-04-26T11:11:10;101344.53;;;7.01;100.00
69060;BME280;56135;37.534;-122.308;2023-04-26T11:13:38;101347.16;;;7.01;100.00
69060;BME280;56135;37.534;-122.308;2023-04-26T11:16:13;101348.06;;;7.00;100.00
69060;BME280;56135;37.534;-122.308;2023-04-26T11:18:42;101355.88;;;6.97;100.00
69060;BME280;56135;37.534;-122.308;2023-04-26T11:21:09;101355.81;;;6.91;100.00
69060;BME280;56135;37.534;-122.308;2023-04-26T11:23:36;101356.66;;;6.87;100.00
69060;BME280;56135;37.534;-122.308;2023-04-26T11:26:05;101354.03;;;6.87;100.00
69060;BME280;56135;37.534;-122.308;2023-04-26T11:28:36;101346.94;;;6.83;100.00
69060;BME280;56135;37.534;-122.308;2023-04-26T11:31:03;101346.09;;;6.85;100.00
69060;BME280;56135;37.534;-122.308;2023-04-26T11:33:31;101347.84;;;6.83;100.00
69060;BME280;56135;37.534;-122.308;2023-04-26T11:35:59;101353.94;;;6.81;100.00
69060;BME280;56135;37.534;-122.308;2023-04-26T11:38:26;101344.28;;;6.80;100.00
69060;BME280;56135;37.534;-122.308;2023-04-26T11:41:00;101356.56;;;6.79;100.00
69060;BME280;56135;37.534;-122.308;2023-04-26T11:43:39;101352.16;;;6.80;100.00
69060;BME280;56135;37.534;-122.308;2023-04-26T11:46:06;101346.91;;;6.78;100.00
69060;BME280;56135;37.534;-122.308;2023-04-26T11:48:35;101341.63;;;6.77;100.00
69060;BME280;56135;37.534;-122.308;2023-04-26T11:51:05;101350.44;;;6.80;100.00
69060;BME280;56135;37.534;-122.308;2023-04-26T11:53:53;101346.94;;;6.83;100.00
69060;BME280;56135;37.534;-122.308;2023-04-26T11:56:20;101343.44;;;6.81;100.00
69060;BME280;56135;37.534;-122.308;2023-04-26T11:58:51;101346.91;;;6.80;100.00
69060;BME280;56135;37.534;-122.308;2023-04-26T12:01:25;101341.66;;;6.80;100.00
69060;BME280;56135;37.534;-122.308;2023-04-26T12:03:56;101345.22;;;6.83;100.00
69060;BME280;56135;37.534;-122.308;2023-04-26T12:06:41;101342.59;;;6.82;100.00
69060;BME280;56135;37.534;-122.308;2023-04-26T12:09:08;101348.69;;;6.81;100.00
69060;BME280;56135;37.534;-122.308;2023-04-26T12:11:35;101346.03;;;6.78;100.00
69060;BME280;56135;37.534;-122.308;2023-04-26T12:14:02;101352.16;;;6.80;100.00
69060;BME280;56135;37.534;-122.308;2023-04-26T12:16:29;101353.94;;;6.81;100.00
69060;BME280;56135;37.534;-122.308;2023-04-26T12:18:56;101356.59;;;6.82;100.00
69060;BME280;56135;37.534;-122.308;2023-04-26T12:21:23;101347.84;;;6.83;100.00
69060;BME280;56135;37.534;-122.308;2023-04-26T12:23:50;101355.75;;;6.85;100.00
69060;BME280;56135;37.534;-122.308;2023-04-26T12:26:17;101353.94;;;6.81;100.00
69060;BME280;56135;37.534;-122.308;2023-04-26T12:28:45;101358.31;;;6.80;100.00